Time;durP1;ratioP1;P1;durP2;ratioP2;P2;SDS_P1;SDS_P2;PMS_P1;PMS_P2;Temp;Humidity;BMP_temperature;BMP_pressure;BME280_temperature;BME280_humidity;BME280_pressure;Samples;Min_cycle;Max_cycle;Signal;HPM_P1;HPM_P2
2021/12/26 00:01:33;;;;;;;2.35;1.83;;;;;;;;;;5051785;28;20195;-79
2021/12/26 00:04:00;;;;;;;3.60;1.80;;;;;;;;;;5055555;28;20651;-77
2021/12/26 00:06:28;;;;;;;2.20;2.00;;;;;;;;;;5056203;28;20187;-78
2021/12/26 00:08:55;;;;;;;2.75;2.28;;;;;;;;;;5053054;28;20585;-79
2021/12/26 00:11:24;;;;;;;2.10;1.75;;;;;;;;;;5048789;28;20625;-78
2021/12/26 00:13:53;;;;;;;3.20;2.28;;;;;;;;;;5055847;28;20289;-78
2021/12/26 00:16:20;;;;;;;2.88;1.48;;;;;;;;;;5052286;28;20202;-78
2021/12/26 00:18:47;;;;;;;2.60;2.20;;;;;;;;;;5045286;28;20199;-79
2021/12/26 00:21:15;;;;;;;4.22;2.15;;;;;;;;;;5041635;28;20207;-80
2021/12/26 00:23:42;;;;;;;2.53;1.85;;;;;;;;;;5056093;28;20199;-79
2021/12/26 00:26:09;;;;;;;3.08;2.03;;;;;;;;;;5046481;28;20213;-81
2021/12/26 00:28:37;;;;;;;4.82;1.70;;;;;;;;;;5051317;28;20191;-79
2021/12/26 00:31:06;;;;;;;1.75;1.50;;;;;;;;;;5040727;28;20210;-78
2021/12/26 00:33:33;;;;;;;2.45;2.00;;;;;;;;;;5049377;28;20198;-80
2021/12/26 00:36:00;;;;;;;3.38;1.52;;;;;;;;;;5047805;28;20195;-80
2021/12/26 00:38:27;;;;;;;1.67;1.58;;;;;;;;;;5059328;28;20195;-80
2021/12/26 00:40:54;;;;;;;2.45;2.08;;;;;;;;;;5048703;28;20205;-79
2021/12/26 00:43:21;;;;;;;4.22;2.08;;;;;;;;;;5057722;28;20197;-79
2021/12/26 00:45:48;;;;;;;1.70;1.40;;;;;;;;;;5052025;28;20209;-78
2021/12/26 00:48:17;;;;;;;2.13;1.45;;;;;;;;;;5049633;28;20214;-79
2021/12/26 00:50:44;;;;;;;2.47;1.92;;;;;;;;;;5044556;28;20394;-79
2021/12/26 00:53:12;;;;;;;1.92;1.67;;;;;;;;;;5057149;28;20685;-80
2021/12/26 00:55:39;;;;;;;2.13;1.45;;;;;;;;;;5040919;28;20206;-80
2021/12/26 00:58:06;;;;;;;2.30;1.67;;;;;;;;;;5060800;28;20191;-79
2021/12/26 01:00:38;;;;;;;2.72;2.05;;;;;;;;;;5051384;28;20605;-77
2021/12/26 01:03:06;;;;;;;2.63;1.77;;;;;;;;;;5050694;28;20281;-78
2021/12/26 01:05:35;;;;;;;2.55;2.03;;;;;;;;;;5048469;28;20198;-81
2021/12/26 01:08:04;;;;;;;2.00;1.67;;;;;;;;;;5053886;28;20199;-80
2021/12/26 01:10:33;;;;;;;2.28;1.80;;;;;;;;;;5046054;28;20203;-79
2021/12/26 01:13:09;;;;;;;3.67;1.77;;;;;;;;;;5043212;28;20238;-78
2021/12/26 01:15:36;;;;;;;5.60;2.55;;;;;;;;;;5051201;28;20193;-80
2021/12/26 01:18:03;;;;;;;2.70;2.10;;;;;;;;;;5044405;28;20198;-79
2021/12/26 01:20:44;;;;;;;2.47;1.90;;;;;;;;;;5051535;28;20659;-80
2021/12/26 01:23:13;;;;;;;3.80;1.92;;;;;;;;;;5052507;28;20203;-78
2021/12/26 01:25:40;;;;;;;1.95;1.80;;;;;;;;;;5049646;28;20191;-80
2021/12/26 01:28:08;;;;;;;1.92;1.45;;;;;;;;;;5040872;28;20662;-79
2021/12/26 01:30:38;;;;;;;3.47;2.20;;;;;;;;;;5034421;28;20202;-79
2021/12/26 01:33:05;;;;;;;2.05;1.73;;;;;;;;;;5048607;28;20230;-80
2021/12/26 01:35:33;;;;;;;2.92;1.70;;;;;;;;;;5049158;28;20191;-80
2021/12/26 01:38:00;;;;;;;2.47;2.25;;;;;;;;;;5053575;28;20197;-79
2021/12/26 01:40:28;;;;;;;2.15;1.92;;;;;;;;;;5044687;28;20625;-81
2021/12/26 01:43:00;;;;;;;1.98;1.65;;;;;;;;;;5049001;28;20195;-79
2021/12/26 01:45:28;;;;;;;1.73;1.45;;;;;;;;;;5050380;28;20197;-78
2021/12/26 01:47:58;;;;;;;2.63;1.70;;;;;;;;;;5046502;28;20206;-79
2021/12/26 01:50:25;;;;;;;2.33;2.08;;;;;;;;;;5051701;28;20366;-80
2021/12/26 01:52:52;;;;;;;2.13;1.85;;;;;;;;;;5041606;28;20207;-79
2021/12/26 01:55:25;;;;;;;2.67;1.70;;;;;;;;;;5049680;28;20202;-81
2021/12/26 01:57:54;;;;;;;2.72;1.60;;;;;;;;;;5052576;28;20677;-78
2021/12/26 02:00:22;;;;;;;3.28;2.38;;;;;;;;;;5056193;28;20210;-79
2021/12/26 02:02:49;;;;;;;2.83;1.60;;;;;;;;;;5042231;28;20273;-80
2021/12/26 02:05:17;;;;;;;2.03;1.83;;;;;;;;;;5050897;28;20204;-76
2021/12/26 02:07:44;;;;;;;4.18;1.90;;;;;;;;;;5042529;28;20223;-77
2021/12/26 02:10:11;;;;;;;1.60;1.50;;;;;;;;;;5046148;28;20196;-79
2021/12/26 02:12:38;;;;;;;2.90;1.40;;;;;;;;;;5065666;28;20300;-79
2021/12/26 02:15:07;;;;;;;3.05;1.60;;;;;;;;;;5063845;28;20615;-78
2021/12/26 02:17:35;;;;;;;2.60;2.00;;;;;;;;;;5045934;28;20273;-78
2021/12/26 02:20:20;;;;;;;2.42;1.60;;;;;;;;;;5051178;28;20570;-78
2021/12/26 02:22:53;;;;;;;1.55;1.40;;;;;;;;;;5050167;28;20200;-78
2021/12/26 02:25:32;;;;;;;3.17;2.08;;;;;;;;;;5051210;28;20281;-78
2021/12/26 02:27:58;;;;;;;2.20;1.80;;;;;;;;;;5047774;28;20612;-78
2021/12/26 02:30:25;;;;;;;2.03;1.88;;;;;;;;;;5052387;28;20686;-79
2021/12/26 02:32:57;;;;;;;2.30;1.98;;;;;;;;;;5047172;28;20886;-78
2021/12/26 02:35:25;;;;;;;1.80;1.65;;;;;;;;;;5050632;28;20329;-78
2021/12/26 02:37:52;;;;;;;2.58;1.77;;;;;;;;;;5033816;28;20211;-79
2021/12/26 02:40:19;;;;;;;2.75;1.63;;;;;;;;;;5047700;28;20198;-76
2021/12/26 02:42:47;;;;;;;2.47;1.50;;;;;;;;;;5058636;28;20210;-79
2021/12/26 02:45:14;;;;;;;1.60;1.50;;;;;;;;;;5055043;28;20566;-80
2021/12/26 02:47:43;;;;;;;2.10;1.90;;;;;;;;;;5048578;28;20197;-79
2021/12/26 02:50:12;;;;;;;3.38;1.90;;;;;;;;;;5052243;28;20209;-79
2021/12/26 02:52:40;;;;;;;1.92;1.30;;;;;;;;;;5069986;28;20218;-80
2021/12/26 02:55:08;;;;;;;3.88;2.00;;;;;;;;;;5055703;28;20199;-79
2021/12/26 02:57:35;;;;;;;2.08;1.77;;;;;;;;;;5054058;28;20198;-80
2021/12/26 03:00:04;;;;;;;3.03;1.90;;;;;;;;;;5039143;28;20231;-80
2021/12/26 03:02:31;;;;;;;2.78;1.67;;;;;;;;;;5047367;28;20195;-78
2021/12/26 03:04:58;;;;;;;2.33;1.60;;;;;;;;;;5053063;28;20194;-79
2021/12/26 03:07:25;;;;;;;2.22;1.38;;;;;;;;;;5053379;28;20674;-80
2021/12/26 03:09:59;;;;;;;1.70;1.50;;;;;;;;;;5050036;28;20665;-78
2021/12/26 03:12:26;;;;;;;2.40;1.70;;;;;;;;;;5042337;28;20318;-79
2021/12/26 03:14:53;;;;;;;3.92;1.30;;;;;;;;;;5063337;28;20230;-80
2021/12/26 03:17:20;;;;;;;1.77;1.45;;;;;;;;;;5052105;28;20202;-79
2021/12/26 03:19:47;;;;;;;2.92;1.58;;;;;;;;;;5044871;28;20207;-80
2021/12/26 03:22:15;;;;;;;2.40;1.60;;;;;;;;;;5046874;28;20207;-79
2021/12/26 03:24:43;;;;;;;2.75;1.52;;;;;;;;;;5050267;28;20194;-79
2021/12/26 03:27:12;;;;;;;3.05;1.80;;;;;;;;;;5050731;28;20693;-79
2021/12/26 03:29:39;;;;;;;2.25;1.50;;;;;;;;;;5051272;28;20219;-80
2021/12/26 03:32:07;;;;;;;2.50;1.20;;;;;;;;;;5051528;28;20223;-79
2021/12/26 03:34:34;;;;;;;2.40;1.35;;;;;;;;;;5045435;28;20202;-79
2021/12/26 03:37:01;;;;;;;1.58;1.27;;;;;;;;;;5068123;28;20194;-79
2021/12/26 03:39:28;;;;;;;3.08;1.50;;;;;;;;;;5049445;28;20194;-79
2021/12/26 03:41:56;;;;;;;1.90;1.55;;;;;;;;;;5044930;28;20202;-80
2021/12/26 03:44:24;;;;;;;1.50;1.30;;;;;;;;;;5052484;28;20684;-82
2021/12/26 03:46:51;;;;;;;1.60;1.40;;;;;;;;;;5048952;28;20673;-81
2021/12/26 03:49:18;;;;;;;1.45;1.35;;;;;;;;;;5051058;28;20329;-80
2021/12/26 03:51:45;;;;;;;2.15;1.75;;;;;;;;;;5052704;28;20202;-80
2021/12/26 03:54:12;;;;;;;1.92;1.50;;;;;;;;;;5050503;28;20226;-75
2021/12/26 03:56:40;;;;;;;1.83;1.40;;;;;;;;;;5044501;28;20213;-75
2021/12/26 03:59:07;;;;;;;2.22;1.60;;;;;;;;;;5053265;28;20654;-75
2021/12/26 04:01:35;;;;;;;1.90;1.58;;;;;;;;;;5050573;28;20199;-75
2021/12/26 04:04:03;;;;;;;1.90;1.70;;;;;;;;;;5054646;28;20198;-75
2021/12/26 04:06:30;;;;;;;2.47;1.45;;;;;;;;;;5048482;28;20187;-76
2021/12/26 04:08:57;;;;;;;2.80;1.75;;;;;;;;;;5043823;28;20191;-75
2021/12/26 04:11:24;;;;;;;2.08;1.70;;;;;;;;;;5050569;28;20216;-76
2021/12/26 04:13:52;;;;;;;1.75;1.65;;;;;;;;;;5064387;28;20227;-76
2021/12/26 04:16:19;;;;;;;3.85;1.83;;;;;;;;;;5047599;28;20207;-77
2021/12/26 04:18:47;;;;;;;2.97;2.38;;;;;;;;;;5039896;28;20576;-75
2021/12/26 04:21:14;;;;;;;2.05;1.85;;;;;;;;;;5044120;28;20199;-75
2021/12/26 04:23:41;;;;;;;2.55;1.80;;;;;;;;;;5049502;28;20206;-76
2021/12/26 04:26:08;;;;;;;1.90;1.70;;;;;;;;;;5050984;28;20222;-76
2021/12/26 04:28:35;;;;;;;3.10;2.10;;;;;;;;;;5041019;28;20199;-75
2021/12/26 04:31:02;;;;;;;3.00;1.95;;;;;;;;;;5041037;28;20210;-75
2021/12/26 04:33:29;;;;;;;2.33;1.85;;;;;;;;;;5048865;28;20258;-76
2021/12/26 04:35:58;;;;;;;2.25;1.75;;;;;;;;;;5052679;28;20194;-74
2021/12/26 04:38:25;;;;;;;2.90;1.80;;;;;;;;;;5058458;28;20205;-74
2021/12/26 04:40:52;;;;;;;2.05;1.85;;;;;;;;;;5059041;28;20195;-75
2021/12/26 04:43:22;;;;;;;2.33;1.67;;;;;;;;;;5048346;28;20609;-74
2021/12/26 04:45:49;;;;;;;2.17;1.40;;;;;;;;;;5052611;28;20271;-74
2021/12/26 04:48:16;;;;;;;2.15;1.58;;;;;;;;;;5049003;28;20206;-75
2021/12/26 04:50:43;;;;;;;3.25;2.20;;;;;;;;;;5050116;28;20191;-74
2021/12/26 04:53:12;;;;;;;2.75;1.65;;;;;;;;;;5053867;28;20215;-74
2021/12/26 04:55:39;;;;;;;2.70;1.85;;;;;;;;;;5050082;28;20195;-74
2021/12/26 04:58:06;;;;;;;3.58;1.75;;;;;;;;;;5054063;28;20702;-74
2021/12/26 05:00:34;;;;;;;1.70;1.42;;;;;;;;;;5051674;28;20218;-74
2021/12/26 05:03:04;;;;;;;1.63;1.52;;;;;;;;;;5049451;28;20278;-75
2021/12/26 05:05:31;;;;;;;2.22;1.85;;;;;;;;;;5047302;28;20195;-75
2021/12/26 05:07:58;;;;;;;2.08;1.50;;;;;;;;;;5049796;28;20198;-76
2021/12/26 05:10:28;;;;;;;1.88;1.33;;;;;;;;;;5038185;28;20539;-75
2021/12/26 05:12:56;;;;;;;2.97;2.10;;;;;;;;;;5055453;28;20219;-75
2021/12/26 05:15:23;;;;;;;2.45;1.55;;;;;;;;;;5050891;28;20566;-75
2021/12/26 05:17:50;;;;;;;2.50;1.95;;;;;;;;;;5050526;28;20202;-74
2021/12/26 05:20:19;;;;;;;6.18;1.92;;;;;;;;;;5051213;28;20213;-75
2021/12/26 05:22:46;;;;;;;2.70;1.70;;;;;;;;;;5047289;28;20227;-76
2021/12/26 05:25:14;;;;;;;2.33;1.60;;;;;;;;;;5052533;28;20648;-75
2021/12/26 05:27:43;;;;;;;3.00;2.35;;;;;;;;;;5047813;28;20196;-76
2021/12/26 05:30:13;;;;;;;1.60;1.50;;;;;;;;;;5049341;28;20199;-75
2021/12/26 05:32:40;;;;;;;4.60;2.10;;;;;;;;;;5045308;28;20253;-75
2021/12/26 05:35:07;;;;;;;2.15;1.95;;;;;;;;;;5050113;28;20232;-75
2021/12/26 05:37:34;;;;;;;2.60;1.55;;;;;;;;;;5043905;28;20659;-75
2021/12/26 05:40:02;;;;;;;2.25;2.00;;;;;;;;;;5050433;28;20677;-75
2021/12/26 05:42:29;;;;;;;1.58;1.48;;;;;;;;;;5045991;28;20560;-75
2021/12/26 05:44:58;;;;;;;1.45;1.35;;;;;;;;;;5054374;28;20195;-75
2021/12/26 05:47:25;;;;;;;2.55;1.77;;;;;;;;;;5047644;28;20214;-77
2021/12/26 05:49:52;;;;;;;2.10;1.90;;;;;;;;;;5052924;28;20195;-75
2021/12/26 05:52:19;;;;;;;2.58;2.38;;;;;;;;;;5054310;28;20645;-75
2021/12/26 05:54:47;;;;;;;2.95;1.55;;;;;;;;;;5053224;28;20546;-75
2021/12/26 05:57:14;;;;;;;2.40;1.75;;;;;;;;;;5042644;28;20205;-76
2021/12/26 05:59:41;;;;;;;3.60;1.70;;;;;;;;;;5041991;28;20206;-76
2021/12/26 06:02:09;;;;;;;2.35;2.15;;;;;;;;;;5053347;28;20252;-75
2021/12/26 06:04:36;;;;;;;1.73;1.63;;;;;;;;;;5054029;28;20589;-75
2021/12/26 06:07:03;;;;;;;2.00;1.40;;;;;;;;;;5054233;28;20735;-75
2021/12/26 06:09:30;;;;;;;2.15;1.73;;;;;;;;;;5051490;28;20195;-75
2021/12/26 06:11:57;;;;;;;2.20;1.90;;;;;;;;;;5055080;28;20613;-75
2021/12/26 06:14:24;;;;;;;1.95;1.75;;;;;;;;;;5054286;28;20689;-76
2021/12/26 06:16:51;;;;;;;3.50;1.63;;;;;;;;;;5049510;28;20195;-76
2021/12/26 06:19:20;;;;;;;2.88;1.75;;;;;;;;;;5049304;28;20206;-75
2021/12/26 06:21:47;;;;;;;1.98;1.60;;;;;;;;;;5051242;28;20199;-75
2021/12/26 06:24:14;;;;;;;1.67;1.55;;;;;;;;;;5041634;28;20601;-74
2021/12/26 06:26:41;;;;;;;2.55;2.08;;;;;;;;;;5054045;28;20198;-75
2021/12/26 06:29:08;;;;;;;2.95;2.40;;;;;;;;;;5046060;28;20198;-75
2021/12/26 06:31:35;;;;;;;9.18;1.95;;;;;;;;;;5049156;28;20612;-74
2021/12/26 06:34:02;;;;;;;3.45;2.13;;;;;;;;;;5046653;28;20227;-76
2021/12/26 06:36:31;;;;;;;2.30;1.48;;;;;;;;;;5054019;28;20194;-74
2021/12/26 06:38:58;;;;;;;2.40;1.80;;;;;;;;;;5050088;28;20195;-74
2021/12/26 06:41:26;;;;;;;2.40;2.10;;;;;;;;;;5046922;28;20202;-75
2021/12/26 06:43:54;;;;;;;1.60;1.50;;;;;;;;;;5054446;28;20290;-74
2021/12/26 06:46:21;;;;;;;2.63;2.00;;;;;;;;;;5053841;28;20202;-75
2021/12/26 06:48:48;;;;;;;2.70;2.00;;;;;;;;;;5034385;28;20283;-74
2021/12/26 06:51:15;;;;;;;3.08;2.22;;;;;;;;;;5049344;28;20609;-75
2021/12/26 06:53:43;;;;;;;2.20;1.67;;;;;;;;;;5052053;28;20219;-75
2021/12/26 06:56:11;;;;;;;5.65;2.03;;;;;;;;;;5055295;28;20255;-76
2021/12/26 06:58:38;;;;;;;3.05;1.98;;;;;;;;;;5051967;28;20558;-77
2021/12/26 07:01:05;;;;;;;1.95;1.60;;;;;;;;;;5055249;28;20675;-77
2021/12/26 07:03:32;;;;;;;3.35;2.42;;;;;;;;;;5050159;28;20218;-77
2021/12/26 07:05:59;;;;;;;3.30;2.75;;;;;;;;;;5050633;28;20615;-78
2021/12/26 07:08:26;;;;;;;2.38;2.15;;;;;;;;;;5051449;28;20206;-78
2021/12/26 07:10:54;;;;;;;1.85;1.75;;;;;;;;;;5050095;28;20203;-77
2021/12/26 07:13:21;;;;;;;2.30;2.10;;;;;;;;;;5052370;28;20215;-76
2021/12/26 07:15:48;;;;;;;2.20;1.85;;;;;;;;;;5052131;28;20198;-77
2021/12/26 07:18:15;;;;;;;2.85;1.88;;;;;;;;;;5044326;28;20667;-76
2021/12/26 07:20:42;;;;;;;3.90;2.33;;;;;;;;;;5050744;28;20681;-77
2021/12/26 07:23:10;;;;;;;3.90;2.13;;;;;;;;;;5053541;28;20214;-77
2021/12/26 07:25:37;;;;;;;2.58;1.77;;;;;;;;;;5049800;28;20199;-77
2021/12/26 07:28:05;;;;;;;3.63;2.08;;;;;;;;;;5051586;28;20206;-78
2021/12/26 07:30:33;;;;;;;3.65;2.42;;;;;;;;;;5055282;28;20206;-78
2021/12/26 07:33:00;;;;;;;2.95;2.50;;;;;;;;;;5050779;28;20199;-77
2021/12/26 07:35:27;;;;;;;2.20;2.03;;;;;;;;;;5052555;28;20657;-78
2021/12/26 07:37:54;;;;;;;2.85;2.30;;;;;;;;;;5051695;28;20199;-77
2021/12/26 07:40:21;;;;;;;3.00;2.67;;;;;;;;;;5048026;28;20200;-78
2021/12/26 07:42:49;;;;;;;2.97;2.70;;;;;;;;;;5045339;28;20201;-78
2021/12/26 07:45:17;;;;;;;3.65;2.25;;;;;;;;;;5066102;28;20217;-78
2021/12/26 07:47:44;;;;;;;3.65;2.72;;;;;;;;;;5042974;28;20659;-77
2021/12/26 07:50:11;;;;;;;3.28;2.40;;;;;;;;;;5050035;28;20677;-78
2021/12/26 07:52:42;;;;;;;2.63;1.98;;;;;;;;;;5047778;28;20195;-79
2021/12/26 07:55:12;;;;;;;2.60;2.30;;;;;;;;;;5048263;28;20224;-77
2021/12/26 07:57:39;;;;;;;3.95;2.95;;;;;;;;;;5043510;28;20199;-78
2021/12/26 08:00:07;;;;;;;5.65;2.67;;;;;;;;;;5049969;28;20218;-79
2021/12/26 08:02:36;;;;;;;4.18;2.70;;;;;;;;;;5042723;28;20195;-78
2021/12/26 08:05:03;;;;;;;2.90;2.53;;;;;;;;;;5059348;28;20270;-78
2021/12/26 08:07:30;;;;;;;2.30;2.10;;;;;;;;;;5051125;28;20191;-77
2021/12/26 08:09:57;;;;;;;2.47;1.90;;;;;;;;;;5043268;28;20199;-78
2021/12/26 08:12:24;;;;;;;2.60;2.38;;;;;;;;;;5058174;28;20670;-78
2021/12/26 08:14:51;;;;;;;3.35;2.50;;;;;;;;;;5053993;28;20238;-77
2021/12/26 08:17:18;;;;;;;2.75;2.45;;;;;;;;;;5054756;28;20214;-77
2021/12/26 08:19:46;;;;;;;3.92;2.75;;;;;;;;;;5052662;28;20199;-77
2021/12/26 08:22:13;;;;;;;5.05;3.47;;;;;;;;;;5059645;28;20671;-77
2021/12/26 08:24:40;;;;;;;4.07;3.15;;;;;;;;;;5047161;28;20211;-77
2021/12/26 08:27:07;;;;;;;4.65;3.30;;;;;;;;;;5052472;28;20199;-78
2021/12/26 08:29:34;;;;;;;3.08;2.78;;;;;;;;;;5048483;28;20202;-78
2021/12/26 08:32:02;;;;;;;6.47;3.13;;;;;;;;;;5044215;28;20207;-78
2021/12/26 08:34:29;;;;;;;4.70;3.28;;;;;;;;;;5041815;28;20321;-77
2021/12/26 08:37:01;;;;;;;2.58;2.33;;;;;;;;;;5041602;28;20642;-78
2021/12/26 08:39:28;;;;;;;4.93;3.03;;;;;;;;;;5049793;28;20609;-78
2021/12/26 08:41:55;;;;;;;6.10;3.17;;;;;;;;;;5039351;28;20204;-78
2021/12/26 08:44:22;;;;;;;5.43;3.67;;;;;;;;;;5046862;28;20187;-77
2021/12/26 08:46:50;;;;;;;5.25;3.42;;;;;;;;;;5046848;28;20211;-77
2021/12/26 08:49:17;;;;;;;4.25;3.30;;;;;;;;;;5040885;28;20225;-79
2021/12/26 08:51:45;;;;;;;4.10;3.05;;;;;;;;;;5043552;28;20191;-77
2021/12/26 08:54:13;;;;;;;6.03;4.25;;;;;;;;;;5051404;28;20218;-76
2021/12/26 08:56:41;;;;;;;4.72;3.45;;;;;;;;;;5052562;28;20202;-76
2021/12/26 08:59:08;;;;;;;4.00;3.28;;;;;;;;;;5045806;28;20207;-76
2021/12/26 09:01:36;;;;;;;5.55;3.75;;;;;;;;;;5049767;28;20195;-76
2021/12/26 09:04:03;;;;;;;8.73;5.68;;;;;;;;;;5046416;28;20191;-76
2021/12/26 09:06:30;;;;;;;5.22;3.70;;;;;;;;;;5048810;28;20203;-77
2021/12/26 09:08:57;;;;;;;4.85;3.88;;;;;;;;;;5048372;28;20644;-77
2021/12/26 09:11:26;;;;;;;5.25;4.05;;;;;;;;;;5048806;28;20297;-76
2021/12/26 09:13:53;;;;;;;5.70;3.90;;;;;;;;;;5050339;28;20257;-76
2021/12/26 09:16:20;;;;;;;5.45;4.40;;;;;;;;;;5050089;28;20195;-78
2021/12/26 09:18:48;;;;;;;5.10;3.88;;;;;;;;;;5047583;28;20202;-78
2021/12/26 09:21:15;;;;;;;4.97;4.47;;;;;;;;;;5048845;28;20203;-77
2021/12/26 09:23:42;;;;;;;5.60;3.83;;;;;;;;;;5044775;28;20194;-78
2021/12/26 09:26:10;;;;;;;5.10;3.80;;;;;;;;;;5046765;28;20209;-78
2021/12/26 09:28:39;;;;;;;4.03;3.55;;;;;;;;;;5041881;28;20694;-78
2021/12/26 09:31:06;;;;;;;6.90;3.58;;;;;;;;;;5051476;28;20650;-77
2021/12/26 09:33:34;;;;;;;5.75;4.05;;;;;;;;;;5044485;28;20194;-78
2021/12/26 09:36:01;;;;;;;3.72;3.20;;;;;;;;;;5049357;28;20708;-78
2021/12/26 09:38:28;;;;;;;7.30;4.40;;;;;;;;;;5050101;28;20226;-78
2021/12/26 09:40:56;;;;;;;5.18;3.70;;;;;;;;;;5039316;28;20246;-78
2021/12/26 09:43:23;;;;;;;3.95;3.58;;;;;;;;;;5036916;28;20704;-77
2021/12/26 09:45:52;;;;;;;6.25;4.78;;;;;;;;;;5040290;28;20202;-77
2021/12/26 09:48:19;;;;;;;7.45;4.60;;;;;;;;;;5049280;28;20210;-78
2021/12/26 09:50:47;;;;;;;7.82;5.00;;;;;;;;;;5047351;28;20202;-78
2021/12/26 09:53:14;;;;;;;7.18;4.47;;;;;;;;;;5050101;28;20226;-77
2021/12/26 09:55:41;;;;;;;16.95;6.05;;;;;;;;;;5043515;28;20302;-77
2021/12/26 09:58:09;;;;;;;7.22;5.10;;;;;;;;;;5031407;28;20206;-77
2021/12/26 10:00:39;;;;;;;9.02;4.70;;;;;;;;;;5040345;28;20210;-77
2021/12/26 10:03:13;;;;;;;7.25;4.60;;;;;;;;;;5042024;28;20198;-77
2021/12/26 10:06:00;;;;;;;6.80;4.25;;;;;;;;;;5043601;28;20183;-77
2021/12/26 10:08:27;;;;;;;6.30;4.00;;;;;;;;;;5045866;28;20198;-78
2021/12/26 10:11:08;;;;;;;5.65;4.38;;;;;;;;;;5046009;28;20194;-78
2021/12/26 10:13:39;;;;;;;6.68;4.95;;;;;;;;;;5045519;28;20198;-78
2021/12/26 10:16:06;;;;;;;4.72;4.22;;;;;;;;;;5048671;28;20225;-78
2021/12/26 10:18:39;;;;;;;5.72;4.18;;;;;;;;;;5045780;28;20199;-78
2021/12/26 10:21:21;;;;;;;6.78;4.88;;;;;;;;;;5047103;28;20646;-78
2021/12/26 10:23:48;;;;;;;6.55;5.40;;;;;;;;;;5048206;28;20216;-78
2021/12/26 10:26:19;;;;;;;6.53;4.93;;;;;;;;;;5048067;28;20663;-78
2021/12/26 10:29:04;;;;;;;7.78;4.70;;;;;;;;;;5040698;28;20191;-75
2021/12/26 10:31:31;;;;;;;7.55;4.93;;;;;;;;;;5043458;28;20222;-73
2021/12/26 10:33:59;;;;;;;6.00;3.97;;;;;;;;;;5052363;28;20202;-76
2021/12/26 10:36:27;;;;;;;5.90;4.18;;;;;;;;;;5045068;28;20210;-76
2021/12/26 10:39:12;;;;;;;7.38;5.13;;;;;;;;;;5038080;28;20415;-76
2021/12/26 10:41:43;;;;;;;4.78;3.60;;;;;;;;;;5049599;28;20243;-77
2021/12/26 10:44:19;;;;;;;4.97;4.35;;;;;;;;;;5038404;28;20265;-76
2021/12/26 10:46:48;;;;;;;7.40;4.70;;;;;;;;;;5042543;28;20210;-76
2021/12/26 10:49:27;;;;;;;5.45;4.70;;;;;;;;;;5046231;28;20231;-76
2021/12/26 10:51:54;;;;;;;5.22;4.60;;;;;;;;;;5044221;28;20210;-76
2021/12/26 10:54:25;;;;;;;6.75;4.90;;;;;;;;;;5048292;28;20206;-77
2021/12/26 10:57:20;;;;;;;6.90;5.35;;;;;;;;;;5038551;28;20733;-76
2021/12/26 10:59:48;;;;;;;6.13;3.97;;;;;;;;;;5002296;28;20215;-76
2021/12/26 11:02:26;;;;;;;6.10;5.00;;;;;;;;;;5041552;28;20638;-76
2021/12/26 11:05:03;;;;;;;8.27;4.95;;;;;;;;;;5047636;28;20959;-75
2021/12/26 11:07:31;;;;;;;4.72;4.15;;;;;;;;;;5049406;28;20202;-77
2021/12/26 11:10:02;;;;;;;6.20;5.68;;;;;;;;;;5046299;28;20199;-76
2021/12/26 11:12:38;;;;;;;9.27;5.43;;;;;;;;;;5049187;28;20675;-75
2021/12/26 11:15:06;;;;;;;4.88;4.20;;;;;;;;;;5046855;28;20260;-76
2021/12/26 11:17:34;;;;;;;6.63;5.10;;;;;;;;;;5048603;28;20209;-77
2021/12/26 11:20:03;;;;;;;8.65;4.70;;;;;;;;;;5042979;28;20195;-77
2021/12/26 11:22:30;;;;;;;7.03;5.00;;;;;;;;;;5043738;28;20222;-77
2021/12/26 11:24:58;;;;;;;5.25;3.40;;;;;;;;;;5045811;28;20651;-77
2021/12/26 11:27:25;;;;;;;5.80;4.78;;;;;;;;;;5045548;28;20198;-77
2021/12/26 11:29:53;;;;;;;8.50;5.60;;;;;;;;;;5047344;28;20543;-76
2021/12/26 11:32:21;;;;;;;7.80;4.75;;;;;;;;;;5039685;28;20298;-77
2021/12/26 11:34:48;;;;;;;7.88;5.70;;;;;;;;;;5043716;28;20218;-77
2021/12/26 11:37:18;;;;;;;6.45;4.85;;;;;;;;;;5049525;28;20203;-76
2021/12/26 11:39:45;;;;;;;5.53;4.70;;;;;;;;;;5047493;28;20215;-77
2021/12/26 11:42:23;;;;;;;6.70;5.28;;;;;;;;;;5047283;28;20203;-76
2021/12/26 11:44:57;;;;;;;6.82;5.88;;;;;;;;;;5048434;28;20285;-76
2021/12/26 11:47:39;;;;;;;8.10;5.00;;;;;;;;;;5046035;28;20207;-76
2021/12/26 11:50:15;;;;;;;6.30;5.32;;;;;;;;;;5041535;28;20662;-76
2021/12/26 11:52:59;;;;;;;7.00;5.70;;;;;;;;;;5046895;28;20662;-76
2021/12/26 11:55:30;;;;;;;5.80;4.78;;;;;;;;;;5048586;28;20510;-76
2021/12/26 11:58:07;;;;;;;5.60;5.05;;;;;;;;;;5046425;28;20202;-77
2021/12/26 12:00:36;;;;;;;11.38;7.65;;;;;;;;;;5042361;28;20685;-76
2021/12/26 12:03:04;;;;;;;7.35;5.22;;;;;;;;;;5045493;28;20656;-77
2021/12/26 12:05:36;;;;;;;7.13;5.47;;;;;;;;;;5046585;28;20221;-76
2021/12/26 12:08:06;;;;;;;7.50;6.22;;;;;;;;;;5041173;28;20238;-76
2021/12/26 12:10:38;;;;;;;7.82;6.28;;;;;;;;;;5046530;28;20666;-76
2021/12/26 12:13:06;;;;;;;8.25;6.57;;;;;;;;;;5051378;28;20191;-76
2021/12/26 12:15:44;;;;;;;7.80;5.85;;;;;;;;;;5046563;28;20210;-76
2021/12/26 12:18:12;;;;;;;11.55;8.55;;;;;;;;;;5049419;28;20198;-77
2021/12/26 12:20:39;;;;;;;8.43;6.50;;;;;;;;;;5048306;28;20206;-76
2021/12/26 12:23:18;;;;;;;7.55;6.63;;;;;;;;;;5046807;28;20195;-76
2021/12/26 12:25:49;;;;;;;12.00;7.50;;;;;;;;;;5039429;28;20257;-76
2021/12/26 12:28:17;;;;;;;5.90;5.30;;;;;;;;;;5045633;28;20234;-76
2021/12/26 12:30:46;;;;;;;8.52;6.55;;;;;;;;;;5046695;28;20594;-76
2021/12/26 12:33:14;;;;;;;7.70;5.85;;;;;;;;;;5033483;28;20571;-76
2021/12/26 12:35:51;;;;;;;12.10;7.78;;;;;;;;;;5046160;28;20211;-76
2021/12/26 12:38:24;;;;;;;9.07;6.15;;;;;;;;;;5044407;28;20543;-76
2021/12/26 12:40:51;;;;;;;6.18;5.22;;;;;;;;;;5049361;28;20493;-76
2021/12/26 12:43:19;;;;;;;5.95;4.93;;;;;;;;;;5039180;28;20285;-76
2021/12/26 12:46:05;;;;;;;8.05;5.93;;;;;;;;;;5048195;28;20217;-76
2021/12/26 12:48:33;;;;;;;6.05;5.45;;;;;;;;;;5042553;28;20633;-75
2021/12/26 12:51:01;;;;;;;9.10;5.78;;;;;;;;;;5045435;28;20203;-76
2021/12/26 12:53:43;;;;;;;6.97;5.40;;;;;;;;;;5045733;28;20260;-76
2021/12/26 12:56:11;;;;;;;7.10;5.32;;;;;;;;;;5041420;28;20223;-76
2021/12/26 12:58:38;;;;;;;6.93;5.55;;;;;;;;;;5046625;28;20365;-74
2021/12/26 13:01:06;;;;;;;6.60;5.63;;;;;;;;;;5044341;28;20222;-76
2021/12/26 13:03:36;;;;;;;7.28;5.47;;;;;;;;;;5038152;28;20203;-76
2021/12/26 13:06:07;;;;;;;8.07;4.97;;;;;;;;;;5053755;28;20190;-76
2021/12/26 13:08:34;;;;;;;7.47;5.00;;;;;;;;;;5046944;28;20195;-76
2021/12/26 13:11:03;;;;;;;6.47;5.03;;;;;;;;;;5057186;28;20565;-76
2021/12/26 13:13:31;;;;;;;8.38;5.82;;;;;;;;;;5044428;28;20202;-76
2021/12/26 13:15:59;;;;;;;7.35;5.90;;;;;;;;;;5046288;28;20705;-75
2021/12/26 13:18:27;;;;;;;7.93;5.60;;;;;;;;;;5048553;28;20681;-77
2021/12/26 13:20:56;;;;;;;7.38;5.82;;;;;;;;;;5042762;28;20203;-76
2021/12/26 13:23:24;;;;;;;9.60;6.43;;;;;;;;;;5041262;28;20199;-76
2021/12/26 13:25:51;;;;;;;7.65;5.65;;;;;;;;;;5043327;28;20236;-77
2021/12/26 13:28:21;;;;;;;8.40;5.72;;;;;;;;;;5045568;28;20191;-75
2021/12/26 13:30:50;;;;;;;9.65;7.45;;;;;;;;;;5047176;28;20677;-76
2021/12/26 13:33:18;;;;;;;9.23;7.47;;;;;;;;;;5041459;28;20288;-76
2021/12/26 13:35:45;;;;;;;6.38;5.35;;;;;;;;;;5047326;28;20218;-76
2021/12/26 13:38:12;;;;;;;9.05;5.93;;;;;;;;;;5045149;28;20203;-75
2021/12/26 13:40:40;;;;;;;9.88;6.25;;;;;;;;;;5056042;28;20194;-75
2021/12/26 13:43:07;;;;;;;8.07;5.40;;;;;;;;;;5049043;28;20214;-76
2021/12/26 13:45:37;;;;;;;7.30;5.57;;;;;;;;;;5049664;28;20201;-76
2021/12/26 13:48:05;;;;;;;7.30;5.30;;;;;;;;;;5047096;28;20191;-75
2021/12/26 13:50:32;;;;;;;7.18;6.22;;;;;;;;;;5045037;28;20196;-75
2021/12/26 13:53:00;;;;;;;6.95;5.50;;;;;;;;;;5045832;28;20209;-79
2021/12/26 13:55:27;;;;;;;8.80;6.65;;;;;;;;;;5044714;28;20225;-75
2021/12/26 13:57:58;;;;;;;6.20;5.47;;;;;;;;;;5050169;28;20199;-76
2021/12/26 14:00:26;;;;;;;7.45;6.40;;;;;;;;;;5051465;28;20219;-77
2021/12/26 14:02:54;;;;;;;8.80;6.95;;;;;;;;;;5046795;28;20206;-75
2021/12/26 14:05:23;;;;;;;8.35;6.45;;;;;;;;;;5049227;28;20202;-75
2021/12/26 14:07:58;;;;;;;8.45;6.07;;;;;;;;;;5049450;28;20550;-76
2021/12/26 14:10:26;;;;;;;8.80;6.88;;;;;;;;;;5052945;28;20561;-75
2021/12/26 14:12:57;;;;;;;11.93;8.45;;;;;;;;;;5040396;28;20207;-75
2021/12/26 14:15:26;;;;;;;7.85;6.25;;;;;;;;;;5054328;28;20226;-75
2021/12/26 14:17:56;;;;;;;8.32;7.05;;;;;;;;;;5048889;28;20203;-77
2021/12/26 14:20:23;;;;;;;7.45;6.60;;;;;;;;;;5046567;28;20655;-76
2021/12/26 14:22:50;;;;;;;10.85;7.85;;;;;;;;;;5049768;28;20562;-76
2021/12/26 14:25:17;;;;;;;12.32;7.75;;;;;;;;;;5053688;28;20218;-75
2021/12/26 14:27:45;;;;;;;9.48;6.90;;;;;;;;;;5056134;28;20257;-75
2021/12/26 14:30:13;;;;;;;9.45;7.75;;;;;;;;;;5043111;28;20196;-75
2021/12/26 14:32:40;;;;;;;9.35;6.90;;;;;;;;;;5051687;28;20294;-76
2021/12/26 14:35:14;;;;;;;7.38;6.68;;;;;;;;;;5053265;28;20207;-74
2021/12/26 14:37:41;;;;;;;9.80;7.05;;;;;;;;;;5059624;28;20638;-75
2021/12/26 14:40:10;;;;;;;8.93;6.32;;;;;;;;;;5056605;28;20207;-76
2021/12/26 14:42:42;;;;;;;11.32;8.50;;;;;;;;;;5042329;28;20194;-75
2021/12/26 14:45:14;;;;;;;7.82;7.00;;;;;;;;;;5056911;28;20206;-75
2021/12/26 14:47:42;;;;;;;13.30;7.93;;;;;;;;;;5053407;28;20218;-76
2021/12/26 14:50:11;;;;;;;8.77;7.25;;;;;;;;;;5047733;28;20199;-75
2021/12/26 14:52:43;;;;;;;11.95;8.35;;;;;;;;;;5055758;28;20198;-75